createdAt,value
2022-10-26T00:00:11.955Z,5.13
2022-10-26T00:02:39.222Z,5.07
2022-10-26T00:05:07.431Z,4.72
2022-10-26T00:07:34.518Z,4.60
2022-10-26T00:10:01.635Z,4.30
2022-10-26T00:12:28.734Z,5.38
2022-10-26T00:14:55.778Z,5.35
2022-10-26T00:17:23.378Z,5.50
2022-10-26T00:19:50.470Z,4.57
2022-10-26T00:22:17.574Z,3.85
2022-10-26T00:24:44.627Z,5.50
2022-10-26T00:27:11.714Z,5.53
2022-10-26T00:29:38.774Z,5.07
2022-10-26T00:32:06.645Z,6.70
2022-10-26T00:34:33.710Z,4.73
2022-10-26T00:37:00.757Z,4.35
2022-10-26T00:39:27.923Z,5.50
2022-10-26T00:41:54.992Z,4.28
2022-10-26T00:44:42.227Z,5.03
2022-10-26T00:47:11.802Z,5.15
2022-10-26T00:49:39.105Z,6.45
2022-10-26T00:52:07.574Z,4.00
2022-10-26T00:54:34.694Z,3.87
2022-10-26T00:57:02.010Z,3.50
2022-10-26T00:59:29.066Z,4.60
2022-10-26T01:01:56.277Z,4.70
2022-10-26T01:04:23.494Z,4.70
2022-10-26T01:06:50.605Z,4.30
2022-10-26T01:09:18.610Z,4.55
2022-10-26T01:11:45.722Z,4.30
2022-10-26T01:14:14.158Z,5.47
2022-10-26T01:16:42.809Z,4.80
2022-10-26T01:19:29.972Z,6.30
2022-10-26T01:21:59.555Z,5.30
2022-10-26T01:24:36.437Z,4.60
2022-10-26T01:27:23.419Z,3.90
2022-10-26T01:30:00.777Z,3.88
2022-10-26T01:32:30.726Z,4.97
2022-10-26T01:35:02.618Z,4.40
2022-10-26T01:37:31.630Z,7.47
2022-10-26T01:40:00.825Z,6.32
2022-10-26T01:42:29.105Z,5.07
2022-10-26T01:44:58.453Z,5.50
2022-10-26T01:47:26.689Z,4.97
2022-10-26T01:49:55.389Z,4.70
2022-10-26T01:52:22.509Z,5.38
2022-10-26T01:54:49.578Z,5.70
2022-10-26T01:57:18.353Z,7.07
2022-10-26T01:59:45.465Z,6.25
2022-10-26T02:02:12.538Z,5.60
2022-10-26T02:04:39.593Z,8.10
2022-10-26T02:07:33.294Z,6.60
2022-10-26T02:10:08.968Z,4.57
2022-10-26T02:12:42.404Z,5.37
2022-10-26T02:15:13.029Z,4.97
2022-10-26T02:18:00.158Z,6.75
2022-10-26T02:20:36.801Z,5.20
2022-10-26T02:23:05.937Z,6.63
2022-10-26T02:25:34.676Z,8.63
2022-10-26T02:28:05.421Z,5.25
2022-10-26T02:30:33.437Z,6.97
2022-10-26T02:33:00.776Z,6.78
2022-10-26T02:35:31.604Z,4.47
2022-10-26T02:38:01.492Z,5.75
2022-10-26T02:40:29.680Z,6.53
2022-10-26T02:42:58.837Z,6.82
2022-10-26T02:45:27.696Z,5.20
2022-10-26T02:47:55.345Z,5.00
2022-10-26T02:50:24.770Z,5.45
2022-10-26T02:53:07.461Z,7.20
2022-10-26T02:55:34.421Z,6.70
2022-10-26T02:58:04.284Z,6.60
2022-10-26T03:00:31.685Z,8.55
2022-10-26T03:02:59.680Z,5.38
2022-10-26T03:05:27.862Z,5.53
2022-10-26T03:07:56.072Z,6.82
2022-10-26T03:10:23.236Z,7.10
2022-10-26T03:12:50.854Z,7.03
2022-10-26T03:15:18.120Z,5.40
2022-10-26T03:17:44.847Z,7.63
2022-10-26T03:20:13.351Z,7.00
2022-10-26T03:22:40.416Z,5.60
2022-10-26T03:27:35.728Z,7.05
2022-10-26T03:30:02.833Z,6.95
2022-10-26T03:32:29.472Z,5.07
2022-10-26T03:34:56.540Z,7.05
2022-10-26T03:37:23.616Z,5.35
2022-10-26T03:39:50.677Z,5.67
2022-10-26T03:42:17.703Z,6.32
2022-10-26T03:44:44.783Z,5.70
2022-10-26T03:47:11.819Z,6.50
2022-10-26T03:49:38.835Z,7.07
2022-10-26T03:52:05.933Z,5.30
2022-10-26T03:54:32.960Z,7.00
2022-10-26T03:57:00.031Z,5.18
2022-10-26T03:59:27.051Z,6.65
2022-10-26T04:01:56.913Z,6.72
2022-10-26T04:04:25.204Z,6.05
2022-10-26T04:06:53.207Z,5.18
2022-10-26T04:09:20.305Z,6.10
2022-10-26T04:11:47.447Z,9.20
2022-10-26T04:14:14.505Z,11.32
2022-10-26T04:16:41.704Z,13.07
2022-10-26T04:19:08.827Z,11.57
2022-10-26T04:21:35.943Z,13.13
2022-10-26T04:24:03.235Z,10.57
2022-10-26T04:26:30.363Z,12.23
2022-10-26T04:28:57.603Z,12.32
2022-10-26T04:31:24.682Z,13.27
2022-10-26T04:33:51.747Z,11.65
2022-10-26T04:36:18.813Z,10.88
2022-10-26T04:38:45.879Z,7.25
2022-10-26T04:41:13.028Z,8.07
2022-10-26T04:43:39.651Z,8.52
2022-10-26T04:46:06.863Z,7.15
2022-10-26T04:48:33.900Z,7.75
2022-10-26T04:51:01.606Z,8.98
2022-10-26T04:53:28.906Z,9.35
2022-10-26T04:55:58.063Z,9.43
2022-10-26T04:58:25.175Z,8.02
2022-10-26T05:00:52.306Z,8.45
2022-10-26T05:03:19.379Z,7.23
2022-10-26T05:05:47.745Z,8.32
2022-10-26T05:08:15.463Z,10.27
2022-10-26T05:10:42.848Z,9.85
2022-10-26T05:13:11.359Z,12.57
2022-10-26T05:15:38.436Z,11.48
2022-10-26T05:18:06.136Z,9.90
2022-10-26T05:20:35.108Z,10.85
2022-10-26T05:23:03.172Z,9.73
2022-10-26T05:25:32.326Z,8.30
2022-10-26T05:28:00.025Z,7.07
2022-10-26T05:30:27.439Z,9.10
2022-10-26T05:32:55.320Z,8.90
2022-10-26T05:35:22.370Z,7.30
2022-10-26T05:37:49.462Z,7.95
2022-10-26T05:40:17.568Z,11.02
2022-10-26T05:42:44.909Z,8.27
2022-10-26T05:45:12.130Z,7.63
2022-10-26T05:47:42.980Z,7.50
2022-10-26T05:50:10.470Z,8.43
2022-10-26T05:52:41.127Z,9.98
2022-10-26T05:55:10.040Z,10.15
2022-10-26T05:57:37.678Z,10.10
2022-10-26T06:00:07.958Z,9.57
2022-10-26T06:02:45.703Z,9.05
2022-10-26T06:05:16.605Z,7.78
2022-10-26T06:07:43.825Z,7.63
2022-10-26T06:10:12.168Z,6.20
2022-10-26T06:12:39.393Z,10.75
2022-10-26T06:15:06.789Z,8.73
2022-10-26T06:17:34.873Z,9.20
2022-10-26T06:20:22.155Z,8.95
2022-10-26T06:22:55.445Z,11.75
2022-10-26T06:25:26.017Z,11.27
2022-10-26T06:27:57.645Z,9.95
2022-10-26T06:30:24.761Z,10.60
2022-10-26T06:33:01.400Z,10.45
2022-10-26T06:35:43.061Z,10.00
2022-10-26T06:38:12.415Z,9.02
2022-10-26T06:40:41.362Z,7.68
2022-10-26T06:43:13.874Z,9.25
2022-10-26T06:45:43.932Z,6.20
2022-10-26T06:48:14.364Z,9.23
2022-10-26T06:50:45.897Z,7.95
2022-10-26T06:53:16.260Z,7.53
2022-10-26T06:55:45.020Z,10.20
2022-10-26T06:58:20.647Z,7.85
2022-10-26T07:00:49.305Z,6.68
2022-10-26T07:03:16.493Z,9.85
2022-10-26T07:05:44.880Z,6.93
2022-10-26T07:08:12.693Z,8.37
2022-10-26T07:10:40.248Z,8.57
2022-10-26T07:13:07.417Z,6.18
2022-10-26T07:15:35.013Z,7.63
2022-10-26T07:18:03.217Z,7.15
2022-10-26T07:20:30.197Z,7.00
2022-10-26T07:22:57.683Z,6.60
2022-10-26T07:25:25.616Z,6.32
2022-10-26T07:27:52.670Z,5.20
2022-10-26T07:30:19.740Z,5.43
2022-10-26T07:32:47.008Z,5.03
2022-10-26T07:35:14.727Z,4.47
2022-10-26T07:37:41.784Z,6.43
2022-10-26T07:40:09.122Z,7.03
2022-10-26T07:42:37.403Z,4.90
2022-10-26T07:45:04.841Z,5.47
2022-10-26T07:47:31.931Z,8.05
2022-10-26T07:49:59.043Z,5.28
2022-10-26T07:52:26.055Z,6.10
2022-10-26T07:54:53.133Z,7.03
2022-10-26T07:57:20.246Z,6.15
2022-10-26T07:59:47.348Z,7.05
2022-10-26T08:02:14.489Z,6.30
2022-10-26T08:04:41.595Z,5.22
2022-10-26T08:07:08.643Z,6.07
2022-10-26T08:09:35.810Z,5.70
2022-10-26T08:12:02.883Z,4.45
2022-10-26T08:14:30.024Z,6.55
2022-10-26T08:16:57.043Z,6.88
2022-10-26T08:19:24.063Z,6.50
2022-10-26T08:21:51.180Z,6.93
2022-10-26T08:24:18.226Z,6.85
2022-10-26T08:26:45.319Z,5.20
2022-10-26T08:29:12.408Z,6.28
2022-10-26T08:31:39.486Z,4.45
2022-10-26T08:34:06.518Z,3.40
2022-10-26T08:36:33.618Z,4.93
2022-10-26T08:41:37.580Z,5.15
2022-10-26T08:44:08.886Z,5.03
2022-10-26T08:46:38.444Z,6.05
2022-10-26T08:49:14.466Z,5.13
2022-10-26T08:51:42.293Z,5.63
2022-10-26T08:54:14.841Z,6.35
2022-10-26T08:56:45.996Z,4.68
2022-10-26T08:59:26.713Z,4.25
2022-10-26T09:01:54.597Z,6.28
2022-10-26T09:04:27.084Z,4.78
2022-10-26T09:06:55.086Z,4.57
2022-10-26T09:09:26.479Z,5.80
2022-10-26T09:12:00.977Z,5.18
2022-10-26T09:14:33.522Z,5.82
2022-10-26T09:17:00.565Z,4.85
2022-10-26T09:19:29.011Z,7.57
2022-10-26T09:21:56.003Z,5.03
2022-10-26T09:24:40.138Z,4.82
2022-10-26T09:27:20.879Z,4.25
2022-10-26T09:29:48.793Z,4.10
2022-10-26T09:32:35.778Z,3.92
2022-10-26T09:35:04.930Z,4.95
2022-10-26T09:37:35.510Z,6.47
2022-10-26T09:40:22.462Z,5.43
2022-10-26T09:42:59.921Z,4.15
2022-10-26T09:45:31.125Z,4.57
2022-10-26T09:48:05.183Z,3.80
2022-10-26T09:50:35.079Z,3.77
2022-10-26T09:53:02.301Z,3.77
2022-10-26T09:55:30.365Z,4.78
2022-10-26T09:57:59.627Z,4.13
2022-10-26T10:00:28.804Z,3.80
2022-10-26T10:02:57.533Z,3.08
2022-10-26T10:05:49.361Z,3.00
2022-10-26T10:08:22.113Z,3.50
2022-10-26T10:10:59.801Z,3.03
2022-10-26T10:13:28.425Z,3.35
2022-10-26T10:15:57.500Z,4.45
2022-10-26T10:18:24.870Z,2.63
2022-10-26T10:20:53.220Z,3.25
2022-10-26T10:23:26.980Z,2.53
2022-10-26T10:26:02.333Z,4.28
2022-10-26T10:28:30.075Z,2.93
2022-10-26T10:30:59.593Z,2.72
2022-10-26T10:33:34.764Z,4.23
2022-10-26T10:36:02.273Z,3.95
2022-10-26T10:38:29.638Z,3.80
2022-10-26T10:40:59.548Z,2.78
2022-10-26T10:43:27.285Z,3.25
2022-10-26T10:45:58.649Z,5.13
2022-10-26T10:48:28.878Z,3.45
2022-10-26T10:50:57.248Z,6.68
2022-10-26T10:53:27.608Z,4.68
2022-10-26T10:56:14.601Z,4.15
2022-10-26T10:58:41.645Z,4.30
2022-10-26T11:01:13.782Z,3.80
2022-10-26T11:03:41.996Z,3.45
2022-10-26T11:06:16.716Z,4.13
2022-10-26T11:08:46.991Z,4.15
2022-10-26T11:11:17.637Z,3.15
2022-10-26T11:13:49.328Z,2.70
2022-10-26T11:16:19.955Z,4.15
2022-10-26T11:18:51.580Z,5.57
2022-10-26T11:21:37.846Z,4.57
2022-10-26T11:24:11.362Z,2.47
2022-10-26T11:26:45.155Z,4.40
2022-10-26T11:29:22.633Z,4.87
2022-10-26T11:31:55.912Z,4.03
2022-10-26T11:34:41.583Z,4.35
2022-10-26T11:37:14.039Z,5.25
2022-10-26T11:39:45.215Z,3.05
2022-10-26T11:42:20.974Z,3.57
2022-10-26T11:44:52.708Z,3.65
2022-10-26T11:47:34.807Z,4.97
2022-10-26T11:50:21.931Z,3.40
2022-10-26T11:52:50.460Z,4.68
2022-10-26T11:55:18.255Z,7.15
2022-10-26T11:57:46.539Z,3.20
2022-10-26T12:00:13.561Z,4.47
2022-10-26T12:05:16.075Z,6.20
2022-10-26T12:07:47.356Z,5.10
2022-10-26T12:10:23.990Z,5.18
2022-10-26T12:12:54.835Z,5.20
2022-10-26T12:15:35.176Z,3.85
2022-10-26T12:18:12.738Z,3.05
2022-10-26T12:20:47.195Z,6.03
2022-10-26T12:23:23.155Z,3.72
2022-10-26T12:26:21.012Z,4.90
2022-10-26T12:28:52.303Z,5.88
2022-10-26T12:31:36.809Z,5.05
2022-10-26T12:34:05.823Z,3.58
2022-10-26T12:36:52.828Z,4.03
2022-10-26T12:39:28.688Z,4.57
2022-10-26T12:41:58.111Z,4.15
2022-10-26T12:44:46.082Z,5.80
2022-10-26T12:47:33.130Z,3.95
2022-10-26T12:50:07.458Z,4.97
2022-10-26T12:52:40.682Z,4.07
2022-10-26T12:55:27.642Z,3.95
2022-10-26T12:58:01.993Z,3.22
2022-10-26T13:00:29.299Z,4.20
2022-10-26T13:02:59.698Z,4.95
2022-10-26T13:05:42.417Z,5.20
2022-10-26T13:08:10.910Z,6.43
2022-10-26T13:10:41.095Z,4.57
2022-10-26T13:13:08.863Z,6.40
2022-10-26T13:15:40.371Z,4.53
2022-10-26T13:18:07.427Z,4.78
2022-10-26T13:20:35.501Z,7.20
2022-10-26T13:23:03.366Z,6.10
2022-10-26T13:25:31.447Z,4.28
2022-10-26T13:27:58.664Z,4.23
2022-10-26T13:30:45.711Z,5.35
2022-10-26T13:33:17.582Z,6.85
2022-10-26T13:35:45.031Z,5.28
2022-10-26T13:38:13.125Z,3.03
2022-10-26T13:40:40.707Z,3.33
2022-10-26T13:43:12.569Z,4.30
2022-10-26T13:45:53.900Z,4.93
2022-10-26T13:48:24.751Z,6.15
2022-10-26T13:53:43.370Z,4.28
2022-10-26T13:56:27.953Z,4.38
2022-10-26T13:59:11.640Z,5.03
2022-10-26T14:01:38.893Z,3.50
2022-10-26T14:04:25.909Z,3.35
2022-10-26T14:06:53.821Z,4.93
2022-10-26T14:09:21.565Z,3.47
2022-10-26T14:11:50.121Z,5.32
2022-10-26T14:14:20.349Z,5.95
2022-10-26T14:16:48.881Z,5.03
2022-10-26T14:19:20.415Z,2.97
2022-10-26T14:21:50.053Z,3.75
2022-10-26T14:24:24.854Z,4.22
2022-10-26T14:27:03.081Z,5.50
2022-10-26T14:29:33.297Z,4.15
2022-10-26T14:32:00.385Z,6.43
2022-10-26T14:34:27.477Z,4.10
2022-10-26T14:36:55.276Z,3.70
2022-10-26T14:39:40.813Z,5.45
2022-10-26T14:42:13.311Z,3.17
2022-10-26T14:44:40.469Z,5.78
2022-10-26T14:47:14.238Z,6.18
2022-10-26T14:49:45.882Z,6.43
2022-10-26T14:52:17.260Z,6.07
2022-10-26T14:54:56.953Z,7.55
2022-10-26T14:57:40.389Z,6.97
2022-10-26T15:00:24.310Z,3.88
2022-10-26T15:05:23.953Z,9.40
2022-10-26T15:07:52.235Z,4.47
2022-10-26T15:10:39.394Z,5.13
2022-10-26T15:13:09.740Z,6.65
2022-10-26T15:15:39.578Z,5.78
2022-10-26T15:18:14.780Z,4.75
2022-10-26T15:20:47.560Z,4.40
2022-10-26T15:23:15.361Z,4.07
2022-10-26T15:25:49.468Z,7.05
2022-10-26T15:28:22.768Z,5.65
2022-10-26T15:31:05.383Z,7.83
2022-10-26T15:33:33.153Z,5.27
2022-10-26T15:36:20.131Z,7.35
2022-10-26T15:38:48.761Z,6.63
2022-10-26T15:41:18.436Z,7.43
2022-10-26T15:43:48.073Z,8.73
2022-10-26T15:46:15.323Z,6.82
2022-10-26T15:48:42.778Z,6.20
2022-10-26T15:51:13.921Z,7.10
2022-10-26T15:53:40.965Z,6.60
2022-10-26T15:56:14.382Z,6.87
2022-10-26T15:58:41.329Z,5.50
2022-10-26T16:01:08.488Z,4.88
2022-10-26T16:03:35.585Z,7.53
2022-10-26T16:06:03.194Z,3.85
2022-10-26T16:08:31.005Z,6.00
2022-10-26T16:10:58.350Z,4.63
2022-10-26T16:13:26.678Z,4.72
2022-10-26T16:15:53.405Z,9.17
2022-10-26T16:18:20.449Z,5.80
2022-10-26T16:20:47.673Z,5.38
2022-10-26T16:23:14.766Z,4.90
2022-10-26T16:25:43.508Z,4.85
2022-10-26T16:28:11.909Z,6.78
2022-10-26T16:33:06.008Z,5.67
2022-10-26T16:35:33.078Z,6.78
2022-10-26T16:38:00.237Z,6.45
2022-10-26T16:40:27.379Z,4.72
2022-10-26T16:42:54.479Z,5.72
2022-10-26T16:45:21.636Z,6.22
2022-10-26T16:47:49.492Z,3.80
2022-10-26T16:50:20.410Z,4.97
2022-10-26T16:52:47.438Z,5.00
2022-10-26T16:55:14.433Z,3.78
2022-10-26T16:57:41.107Z,4.30
2022-10-26T17:00:08.485Z,6.38
2022-10-26T17:02:35.697Z,6.93
2022-10-26T17:05:06.940Z,5.40
2022-10-26T17:07:34.446Z,7.25
2022-10-26T17:10:01.530Z,6.55
2022-10-26T17:12:28.293Z,4.70
2022-10-26T17:14:57.087Z,6.13
2022-10-26T17:17:24.187Z,5.50
2022-10-26T17:19:51.131Z,8.18
2022-10-26T17:22:17.778Z,8.85
2022-10-26T17:24:44.838Z,6.32
2022-10-26T17:27:12.078Z,5.80
2022-10-26T17:29:39.140Z,6.85
2022-10-26T17:32:06.214Z,7.18
2022-10-26T17:34:33.286Z,6.93
2022-10-26T17:37:00.338Z,7.65
2022-10-26T17:39:27.670Z,9.75
2022-10-26T17:41:54.744Z,7.10
2022-10-26T17:44:22.146Z,6.68
2022-10-26T17:46:49.224Z,6.93
2022-10-26T17:49:16.274Z,6.65
2022-10-26T17:51:43.350Z,6.53
2022-10-26T17:54:10.517Z,6.72
2022-10-26T17:56:37.638Z,7.38
2022-10-26T17:59:06.017Z,8.95
2022-10-26T18:01:33.262Z,8.95
2022-10-26T18:04:01.103Z,8.68
2022-10-26T18:06:28.489Z,7.15
2022-10-26T18:08:57.397Z,8.88
2022-10-26T18:11:27.243Z,6.13
2022-10-26T18:13:56.574Z,11.93
2022-10-26T18:16:24.327Z,12.27
2022-10-26T18:18:59.795Z,9.85
2022-10-26T18:21:27.377Z,10.30
2022-10-26T18:23:54.769Z,9.52
2022-10-26T18:26:23.383Z,10.95
2022-10-26T18:28:50.588Z,14.13
2022-10-26T18:31:18.941Z,13.77
2022-10-26T18:33:45.655Z,12.00
2022-10-26T18:36:13.903Z,11.75
2022-10-26T18:38:41.490Z,10.10
2022-10-26T18:41:09.260Z,9.48
2022-10-26T18:43:39.750Z,9.43
2022-10-26T18:46:08.109Z,9.65
2022-10-26T18:48:35.525Z,8.73
2022-10-26T18:51:03.856Z,9.35
2022-10-26T18:53:32.441Z,8.85
2022-10-26T18:56:01.567Z,8.40
2022-10-26T18:58:37.427Z,7.50
2022-10-26T19:01:06.051Z,7.53
2022-10-26T19:03:33.184Z,9.93
2022-10-26T19:06:07.589Z,9.43
2022-10-26T19:08:34.669Z,8.10
2022-10-26T19:11:02.690Z,7.65
2022-10-26T19:13:29.779Z,9.73
2022-10-26T19:16:17.372Z,9.18
2022-10-26T19:18:56.142Z,6.93
2022-10-26T19:21:23.728Z,9.75
2022-10-26T19:23:53.609Z,9.43
2022-10-26T19:26:22.122Z,9.93
2022-10-26T19:28:55.104Z,8.03
2022-10-26T19:31:24.879Z,8.32
2022-10-26T19:33:56.354Z,7.57
2022-10-26T19:36:23.444Z,6.80
2022-10-26T19:38:50.503Z,6.30
2022-10-26T19:41:17.716Z,7.63
2022-10-26T19:43:45.317Z,6.43
2022-10-26T19:46:13.680Z,6.63
2022-10-26T19:48:41.584Z,7.17
2022-10-26T19:51:09.103Z,6.38
2022-10-26T19:53:36.296Z,6.13
2022-10-26T19:56:03.852Z,8.32
2022-10-26T19:58:31.936Z,6.70
2022-10-26T20:01:00.196Z,7.65
2022-10-26T20:03:28.928Z,6.57
2022-10-26T20:05:56.975Z,6.00
2022-10-26T20:08:24.498Z,7.25
2022-10-26T20:10:53.747Z,6.67
2022-10-26T20:13:20.951Z,7.45
2022-10-26T20:15:49.460Z,7.95
2022-10-26T20:18:16.518Z,8.93
2022-10-26T20:20:43.610Z,8.25
2022-10-26T20:23:11.007Z,8.52
2022-10-26T20:25:38.788Z,7.47
2022-10-26T20:28:06.468Z,7.30
2022-10-26T20:30:35.453Z,8.23
2022-10-26T20:33:02.149Z,8.98
2022-10-26T20:35:29.259Z,8.02
2022-10-26T20:37:56.444Z,11.02
2022-10-26T20:40:24.014Z,11.25
2022-10-26T20:42:52.442Z,10.68
2022-10-26T20:45:24.331Z,9.63
2022-10-26T20:47:51.800Z,10.10
2022-10-26T20:50:19.499Z,11.70
2022-10-26T20:52:49.312Z,9.48
2022-10-26T20:55:23.499Z,9.38
2022-10-26T20:57:55.336Z,8.70
2022-10-26T21:00:22.561Z,7.43
2022-10-26T21:02:49.927Z,8.10
2022-10-26T21:05:19.019Z,7.00
2022-10-26T21:07:46.095Z,8.40
2022-10-26T21:10:13.293Z,7.85
2022-10-26T21:12:40.989Z,7.25
2022-10-26T21:15:08.310Z,8.07
2022-10-26T21:17:35.380Z,9.05
2022-10-26T21:20:02.465Z,8.02
2022-10-26T21:22:29.500Z,9.48
2022-10-26T21:24:56.550Z,8.90
2022-10-26T21:27:23.667Z,9.05
2022-10-26T21:29:50.793Z,8.13
2022-10-26T21:32:17.863Z,8.68
2022-10-26T21:34:44.893Z,8.63
2022-10-26T21:37:11.951Z,8.05
2022-10-26T21:39:39.002Z,7.78
2022-10-26T21:42:06.078Z,7.25
2022-10-26T21:44:40.825Z,8.52
2022-10-26T21:47:08.302Z,10.02
2022-10-26T21:49:35.037Z,10.98
2022-10-26T21:52:02.277Z,11.15
2022-10-26T21:54:29.321Z,10.80
2022-10-26T21:56:56.379Z,9.70
2022-10-26T21:59:23.416Z,12.40
2022-10-26T22:01:50.640Z,10.95
2022-10-26T22:04:17.853Z,11.07
2022-10-26T22:06:44.870Z,11.38
2022-10-26T22:09:11.947Z,12.88
2022-10-26T22:11:39.010Z,11.88
2022-10-26T22:14:06.074Z,7.75
2022-10-26T22:16:33.371Z,7.50
2022-10-26T22:19:03.863Z,6.97
2022-10-26T22:21:34.595Z,8.10
2022-10-26T22:24:01.691Z,11.20
2022-10-26T22:26:29.963Z,9.30
2022-10-26T22:28:57.524Z,11.43
2022-10-26T22:31:27.371Z,9.80
2022-10-26T22:33:54.439Z,9.98
2022-10-26T22:36:21.912Z,10.73
2022-10-26T22:38:50.194Z,10.98
2022-10-26T22:41:17.815Z,6.85
2022-10-26T22:43:45.061Z,5.30
2022-10-26T22:46:12.010Z,6.40
2022-10-26T22:48:39.145Z,5.55
2022-10-26T22:51:07.009Z,5.18
2022-10-26T22:53:34.053Z,6.47
2022-10-26T22:56:01.483Z,5.20
2022-10-26T22:58:28.658Z,6.60
2022-10-26T23:01:15.759Z,5.50
2022-10-26T23:03:43.117Z,5.38
2022-10-26T23:06:11.497Z,7.68
2022-10-26T23:08:38.557Z,6.18
2022-10-26T23:11:07.202Z,5.80
2022-10-26T23:13:34.194Z,6.27
2022-10-26T23:16:05.308Z,7.25
2022-10-26T23:18:32.669Z,8.73
2022-10-26T23:20:59.681Z,9.20
2022-10-26T23:23:26.713Z,8.38
2022-10-26T23:25:53.745Z,9.05
2022-10-26T23:28:20.808Z,7.80
2022-10-26T23:30:48.181Z,7.80
2022-10-26T23:33:15.296Z,7.70
2022-10-26T23:35:42.489Z,7.80
2022-10-26T23:38:09.570Z,8.83
2022-10-26T23:40:36.636Z,9.60
2022-10-26T23:43:03.708Z,11.45
2022-10-26T23:45:30.749Z,9.73
2022-10-26T23:47:57.788Z,9.00
2022-10-26T23:50:24.873Z,9.05
2022-10-26T23:52:51.980Z,8.95
2022-10-26T23:55:19.056Z,7.70
2022-10-26T23:57:46.102Z,7.20
